Time;durP1;ratioP1;P1;durP2;ratioP2;P2;SDS_P1;SDS_P2;PMS_P1;PMS_P2;Temp;Humidity;BMP_temperature;BMP_pressure;BME280_temperature;BME280_humidity;BME280_pressure;Samples;Min_cycle;Max_cycle;Signal;HPM_P1;HPM_P2
2023/06/04 00:01:13;;;;;;;67.37;5.60;;;15.20;1.00;;;;;;4884031;29;20768;-82
2023/06/04 00:03:39;;;;;;;67.90;5.03;;;15.00;1.00;;;;;;4884049;29;20411;-84
2023/06/04 00:06:04;;;;;;;67.20;4.53;;;14.90;1.00;;;;;;4883740;29;20203;-82
2023/06/04 00:08:30;;;;;;;68.40;4.90;;;15.10;1.00;;;;;;4884261;29;20170;-83
2023/06/04 00:10:56;;;;;;;68.97;4.77;;;15.10;1.00;;;;;;4883934;29;20258;-83
2023/06/04 00:13:21;;;;;;;66.10;4.90;;;14.90;1.00;;;;;;4883572;29;20294;-83
2023/06/04 00:15:47;;;;;;;67.67;4.30;;;14.80;1.00;;;;;;4883541;29;20164;-83
2023/06/04 00:18:13;;;;;;;71.10;5.20;;;14.70;1.00;;;;;;4883518;29;20682;-84
2023/06/04 00:20:39;;;;;;;66.30;4.40;;;14.60;1.00;;;;;;4883300;29;20638;-84
2023/06/04 00:23:05;;;;;;;67.70;3.50;;;14.40;1.00;;;;;;4883136;29;20414;-83
2023/06/04 00:25:31;;;;;;;66.67;4.00;;;14.30;1.00;;;;;;4882990;29;20175;-83
2023/06/04 00:27:57;;;;;;;67.23;4.03;;;14.30;1.00;;;;;;4882078;29;20750;-83
2023/06/04 00:30:22;;;;;;;65.70;3.83;;;14.50;1.00;;;;;;4881882;29;20451;-82
2023/06/04 00:32:48;;;;;;;66.83;4.07;;;14.30;1.00;;;;;;4882289;29;20184;-82
2023/06/04 00:35:14;;;;;;;65.70;3.77;;;14.10;1.00;;;;;;4882903;29;20195;-83
2023/06/04 00:37:40;;;;;;;65.53;3.63;;;14.00;1.00;;;;;;4883246;29;20226;-82
2023/06/04 00:40:06;;;;;;;65.57;3.80;;;14.00;1.00;;;;;;4882990;29;20406;-83
2023/06/04 00:42:32;;;;;;;65.90;3.73;;;13.90;1.00;;;;;;4882258;29;20601;-83
2023/06/04 00:44:58;;;;;;;65.37;3.50;;;13.90;1.00;;;;;;4881514;29;20465;-83
2023/06/04 00:47:27;;;;;;;66.37;3.17;;;13.80;1.00;;;;;;4881527;29;20197;-83
2023/06/04 00:49:57;;;;;;;66.07;3.70;;;13.80;1.00;;;;;;4881511;29;20440;-82
2023/06/04 00:52:24;;;;;;;65.20;3.67;;;13.70;1.00;;;;;;4881571;29;20426;-83
2023/06/04 00:54:54;;;;;;;66.57;4.10;;;13.60;1.00;;;;;;4882918;29;20506;-82
2023/06/04 00:57:21;;;;;;;68.83;3.90;;;13.60;1.00;;;;;;4883194;29;20435;-83
2023/06/04 00:59:47;;;;;;;65.50;4.20;;;13.50;1.00;;;;;;4882753;29;20454;-82
2023/06/04 01:02:19;;;;;;;67.60;4.57;;;13.40;1.00;;;;;;4882928;29;20416;-83
2023/06/04 01:04:45;;;;;;;66.10;3.73;;;13.40;1.00;;;;;;4883092;29;20392;-83
2023/06/04 01:07:13;;;;;;;66.17;4.57;;;13.30;1.00;;;;;;4882586;29;20435;-84
2023/06/04 01:09:39;;;;;;;66.60;4.73;;;13.30;1.00;;;;;;4881389;29;20183;-83
2023/06/04 01:12:06;;;;;;;67.20;5.77;;;13.30;1.00;;;;;;4882622;29;20919;-83
2023/06/04 01:14:33;;;;;;;66.97;6.40;;;13.30;1.00;;;;;;4881033;29;20447;-82
2023/06/04 01:17:11;;;;;;;65.80;5.60;;;13.20;1.00;;;;;;4882412;29;20490;-84
2023/06/04 01:19:51;;;;;;;66.67;7.60;;;13.20;1.00;;;;;;4882944;29;20400;-82
2023/06/04 01:22:30;;;;;;;66.97;7.70;;;13.10;1.00;;;;;;4882481;29;20407;-83
2023/06/04 01:24:59;;;;;;;68.70;7.10;;;13.10;1.00;;;;;;4881373;29;20546;-83
2023/06/04 01:27:25;;;;;;;66.70;7.80;;;13.00;1.00;;;;;;4881098;29;20522;-83
2023/06/04 01:29:51;;;;;;;69.33;7.77;;;13.00;1.00;;;;;;4880970;29;20424;-83
2023/06/04 01:32:17;;;;;;;70.77;7.60;;;12.90;1.00;;;;;;4881756;29;20412;-83
2023/06/04 01:34:46;;;;;;;67.30;6.43;;;12.80;1.00;;;;;;4882204;29;20212;-83
2023/06/04 01:37:13;;;;;;;66.07;5.70;;;12.80;5.10;;;;;;4880511;29;20534;-82
2023/06/04 01:39:38;;;;;;;66.67;5.80;;;12.70;5.50;;;;;;4880940;29;20943;-84
2023/06/04 01:42:04;;;;;;;69.53;6.90;;;12.60;7.10;;;;;;4882318;29;20410;-83
2023/06/04 01:44:30;;;;;;;67.37;7.23;;;12.80;1.40;;;;;;4882492;29;20196;-83
2023/06/04 01:46:56;;;;;;;67.70;5.87;;;12.70;3.70;;;;;;4882180;29;20505;-83
2023/06/04 01:49:21;;;;;;;66.77;6.40;;;12.70;3.90;;;;;;4882336;29;20174;-82
2023/06/04 01:51:47;;;;;;;67.07;6.67;;;12.70;5.20;;;;;;4881956;29;20220;-83
2023/06/04 01:54:13;;;;;;;66.80;5.97;;;12.70;5.90;;;;;;4882030;29;20187;-82
2023/06/04 01:56:38;;;;;;;65.83;5.70;;;12.60;4.50;;;;;;4880488;29;20200;-84
2023/06/04 01:59:04;;;;;;;65.97;5.60;;;12.50;7.90;;;;;;4882173;29;20170;-83
2023/06/04 02:01:30;;;;;;;65.97;5.33;;;12.50;12.00;;;;;;4881899;29;20178;-83
2023/06/04 02:03:55;;;;;;;66.27;5.70;;;12.40;13.30;;;;;;4881813;29;20178;-83
2023/06/04 02:06:21;;;;;;;66.23;5.33;;;12.40;12.30;;;;;;4879913;29;20281;-83
2023/06/04 02:08:46;;;;;;;65.27;5.40;;;12.40;12.80;;;;;;4881600;29;20181;-83
2023/06/04 02:11:12;;;;;;;65.07;5.13;;;12.40;12.00;;;;;;4880470;29;20261;-83
2023/06/04 02:13:38;;;;;;;67.57;5.80;;;12.40;13.40;;;;;;4881959;29;20247;-83
2023/06/04 02:16:05;;;;;;;66.70;6.27;;;12.30;17.70;;;;;;4881817;29;20166;-83
2023/06/04 02:18:30;;;;;;;69.10;6.60;;;12.20;17.40;;;;;;4880140;29;20421;-82
2023/06/04 02:20:56;;;;;;;67.70;5.80;;;12.30;18.90;;;;;;4880928;29;20506;-83
2023/06/04 02:23:22;;;;;;;67.53;5.70;;;12.40;14.40;;;;;;4880775;29;20175;-82
2023/06/04 02:25:49;;;;;;;65.40;5.10;;;12.40;14.70;;;;;;4881823;29;20503;-82
2023/06/04 02:28:15;;;;;;;68.80;6.93;;;12.30;16.20;;;;;;4881647;29;20186;-83
2023/06/04 02:30:41;;;;;;;69.57;6.30;;;12.10;20.30;;;;;;4880845;29;20411;-82
2023/06/04 02:33:09;;;;;;;66.37;5.37;;;12.20;20.40;;;;;;4880196;29;20478;-82
2023/06/04 02:35:36;;;;;;;65.93;5.57;;;12.30;19.40;;;;;;4881335;29;20857;-83
2023/06/04 02:38:01;;;;;;;66.13;5.10;;;12.20;18.70;;;;;;4881560;29;20522;-82
2023/06/04 02:40:28;;;;;;;65.83;6.03;;;12.10;20.90;;;;;;4880511;29;20923;-82
2023/06/04 02:42:54;;;;;;;65.70;5.37;;;12.10;21.90;;;;;;4881412;29;20177;-82
2023/06/04 02:45:21;;;;;;;67.07;5.30;;;12.00;26.40;;;;;;4880501;29;20478;-83
2023/06/04 02:47:46;;;;;;;67.90;6.20;;;11.90;26.60;;;;;;4881268;29;20516;-83
2023/06/04 02:50:13;;;;;;;66.87;6.70;;;11.90;27.80;;;;;;4881420;29;20444;-82
2023/06/04 02:52:39;;;;;;;67.90;6.90;;;11.90;29.90;;;;;;4881780;29;20425;-82
2023/06/04 02:55:08;;;;;;;69.40;8.47;;;11.80;30.20;;;;;;4881514;29;20819;-83
2023/06/04 02:57:35;;;;;;;66.50;8.43;;;11.70;34.50;;;;;;4880471;29;20441;-83
2023/06/04 03:00:13;;;;;;;68.80;8.00;;;11.70;35.10;;;;;;4880155;29;20501;-83
2023/06/04 03:02:43;;;;;;;67.10;7.60;;;11.60;37.80;;;;;;4880003;29;20934;-82
2023/06/04 03:05:10;;;;;;;68.37;10.17;;;11.50;36.20;;;;;;4881631;29;20648;-82
2023/06/04 03:07:37;;;;;;;70.20;13.50;;;11.40;40.80;;;;;;4883303;29;21093;-83
2023/06/04 03:10:04;;;;;;;70.40;11.80;;;11.40;44.40;;;;;;4883182;29;20418;-82
2023/06/04 03:12:30;;;;;;;67.97;11.03;;;11.40;44.90;;;;;;4883283;29;20519;-82
2023/06/04 03:15:03;;;;;;;69.10;13.57;;;11.30;43.00;;;;;;4883475;29;20555;-83
2023/06/04 03:17:28;;;;;;;68.70;11.00;;;11.30;45.40;;;;;;4884285;29;20438;-83
2023/06/04 03:19:55;;;;;;;70.60;11.30;;;11.30;44.40;;;;;;4884970;29;20620;-82
2023/06/04 03:22:21;;;;;;;69.13;12.70;;;11.30;41.20;;;;;;4884855;29;20173;-82
2023/06/04 03:24:47;;;;;;;70.70;15.33;;;11.30;42.40;;;;;;4883380;29;20265;-83
2023/06/04 03:27:13;;;;;;;71.87;18.43;;;11.30;44.40;;;;;;4882760;29;20446;-82
2023/06/04 03:29:39;;;;;;;70.80;18.23;;;11.20;46.70;;;;;;4884409;29;20211;-83
2023/06/04 03:32:06;;;;;;;69.07;13.77;;;11.20;44.60;;;;;;4884629;29;20179;-82
2023/06/04 03:34:32;;;;;;;69.53;14.60;;;11.20;42.40;;;;;;4884132;29;20818;-82
2023/06/04 03:36:59;;;;;;;73.10;17.10;;;11.10;43.00;;;;;;4883785;29;20239;-83
2023/06/04 03:39:25;;;;;;;71.35;18.33;;;11.10;41.80;;;;;;4884572;29;20442;-83
2023/06/04 03:41:51;;;;;;;70.77;16.43;;;11.10;46.00;;;;;;4884244;29;20174;-82
2023/06/04 03:44:17;;;;;;;73.27;18.47;;;11.10;43.90;;;;;;4884145;29;20415;-83
2023/06/04 03:46:44;;;;;;;72.80;23.10;;;11.10;46.90;;;;;;4884185;29;20230;-82
2023/06/04 03:49:11;;;;;;;71.05;17.13;;;11.10;48.70;;;;;;4883834;29;20415;-83
2023/06/04 03:51:41;;;;;;;76.88;17.60;;;11.20;47.50;;;;;;4884196;29;20190;-82
2023/06/04 03:54:06;;;;;;;69.97;16.15;;;11.30;43.30;;;;;;4882796;29;20229;-83
2023/06/04 03:56:32;;;;;;;72.80;18.50;;;11.20;42.00;;;;;;4883843;29;20213;-82
2023/06/04 03:58:59;;;;;;;71.27;18.90;;;11.10;46.70;;;;;;4884280;29;20159;-83
2023/06/04 04:01:25;;;;;;;72.40;21.48;;;11.10;47.90;;;;;;4882996;29;20411;-82
2023/06/04 04:03:53;;;;;;;71.55;21.80;;;11.20;49.10;;;;;;4883870;29;20163;-83
2023/06/04 04:06:19;;;;;;;73.27;25.70;;;11.10;53.70;;;;;;4882547;29;20194;-82
2023/06/04 04:08:45;;;;;;;73.88;26.13;;;11.10;55.40;;;;;;4884026;29;20418;-83
2023/06/04 04:11:13;;;;;;;77.30;32.75;;;11.10;56.00;;;;;;4882182;29;20183;-82
2023/06/04 04:13:39;;;;;;;76.93;36.00;;;11.10;58.40;;;;;;4882531;29;20205;-83
2023/06/04 04:16:05;;;;;;;73.50;29.03;;;11.10;60.30;;;;;;4884057;29;20411;-83
2023/06/04 04:18:35;;;;;;;73.30;28.13;;;11.20;59.70;;;;;;4883713;29;20234;-83
2023/06/04 04:21:01;;;;;;;74.07;29.00;;;11.30;60.90;;;;;;4883619;29;20162;-83
2023/06/04 04:23:28;;;;;;;75.30;32.92;;;11.30;58.60;;;;;;4882266;29;20575;-83
2023/06/04 04:25:56;;;;;;;76.13;31.23;;;11.30;62.40;;;;;;4883738;29;20170;-82
2023/06/04 04:28:22;;;;;;;75.10;31.37;;;11.30;63.10;;;;;;4882265;29;20181;-83
2023/06/04 04:30:48;;;;;;;76.07;32.37;;;11.30;66.30;;;;;;4883779;29;20494;-83
2023/06/04 04:33:17;;;;;;;76.70;36.00;;;11.40;65.10;;;;;;4883468;29;20498;-83
2023/06/04 04:35:45;;;;;;;74.27;30.37;;;11.50;67.10;;;;;;4882441;29;20455;-83
2023/06/04 04:38:11;;;;;;;74.13;23.23;;;11.80;63.50;;;;;;4882013;29;20548;-83
2023/06/04 04:40:37;;;;;;;70.80;11.40;;;12.00;55.40;;;;;;4883105;29;20399;-83
2023/06/04 04:43:03;;;;;;;67.03;7.80;;;12.40;50.60;;;;;;4882781;29;20426;-83
2023/06/04 04:45:29;;;;;;;66.00;6.30;;;12.80;35.70;;;;;;4881899;29;20418;-83
2023/06/04 04:47:55;;;;;;;68.70;7.33;;;13.20;21.60;;;;;;4883065;29;20434;-83
2023/06/04 04:50:21;;;;;;;66.67;7.17;;;13.70;19.80;;;;;;4882754;29;20681;-83
2023/06/04 04:52:46;;;;;;;66.07;5.30;;;14.10;6.10;;;;;;4882023;29;20197;-83
2023/06/04 04:55:12;;;;;;;67.67;5.43;;;14.50;1.30;;;;;;4881421;29;20195;-82
2023/06/04 04:57:39;;;;;;;67.90;5.70;;;14.80;1.00;;;;;;4883117;29;20180;-83
2023/06/04 05:00:07;;;;;;;68.57;6.27;;;15.10;1.00;;;;;;4882648;29;20441;-83
2023/06/04 05:02:34;;;;;;;67.73;5.60;;;15.40;1.00;;;;;;4881107;29;20420;-84
2023/06/04 05:05:00;;;;;;;71.30;5.90;;;15.60;1.00;;;;;;4882961;29;20408;-83
2023/06/04 05:07:25;;;;;;;66.20;4.70;;;15.60;1.00;;;;;;4882056;29;20430;-83
2023/06/04 05:09:51;;;;;;;70.80;4.63;;;15.50;1.00;;;;;;4882797;29;20177;-83
2023/06/04 05:12:17;;;;;;;69.60;5.63;;;15.40;1.00;;;;;;4882740;29;20175;-83
2023/06/04 05:14:43;;;;;;;65.97;4.27;;;15.40;1.00;;;;;;4882689;29;20202;-83
2023/06/04 05:17:10;;;;;;;66.50;4.63;;;15.40;1.00;;;;;;4883067;29;20196;-84
2023/06/04 05:19:37;;;;;;;67.50;5.20;;;15.40;1.00;;;;;;4881312;29;20212;-84
2023/06/04 05:22:03;;;;;;;69.00;5.37;;;15.40;1.00;;;;;;4882773;29;20418;-84
2023/06/04 05:24:30;;;;;;;65.87;4.30;;;15.50;1.00;;;;;;4882566;29;20473;-83
2023/06/04 05:26:58;;;;;;;65.83;4.63;;;15.50;1.00;;;;;;4882337;29;20524;-82
2023/06/04 05:29:24;;;;;;;66.47;4.20;;;15.40;1.00;;;;;;4881855;29;20544;-82
2023/06/04 05:31:51;;;;;;;66.07;4.40;;;15.30;1.00;;;;;;4882764;29;20814;-83
2023/06/04 05:34:18;;;;;;;67.90;4.07;;;15.30;1.00;;;;;;4882018;29;20489;-83
2023/06/04 05:36:44;;;;;;;68.20;5.60;;;15.20;1.00;;;;;;4882610;29;20436;-83
2023/06/04 05:39:10;;;;;;;67.80;5.37;;;15.20;1.00;;;;;;4881718;29;20417;-83
2023/06/04 05:41:36;;;;;;;67.77;7.67;;;15.00;1.00;;;;;;4885824;29;20421;-84
2023/06/04 05:44:02;;;;;;;67.07;5.60;;;15.00;1.00;;;;;;4885106;29;20433;-84
2023/06/04 05:46:28;;;;;;;71.10;6.90;;;14.90;1.00;;;;;;4884636;29;20448;-83
2023/06/04 05:48:54;;;;;;;68.17;5.80;;;14.90;1.00;;;;;;4884261;29;20417;-84
2023/06/04 05:51:23;;;;;;;66.13;4.47;;;14.90;1.00;;;;;;4885772;29;20452;-84
2023/06/04 05:53:49;;;;;;;66.30;4.17;;;14.90;1.00;;;;;;4884364;29;20443;-84
2023/06/04 05:56:16;;;;;;;66.63;4.10;;;15.00;1.00;;;;;;4883945;29;20421;-84
2023/06/04 05:58:42;;;;;;;65.77;3.70;;;15.00;1.00;;;;;;4885696;29;20176;-84
2023/06/04 06:01:07;;;;;;;66.20;3.30;;;15.00;1.00;;;;;;4885276;29;20418;-84
2023/06/04 06:03:33;;;;;;;66.20;3.47;;;15.10;1.00;;;;;;4885654;29;20194;-84
2023/06/04 06:06:00;;;;;;;65.90;3.73;;;15.10;1.00;;;;;;4885594;29;20172;-83
2023/06/04 06:08:26;;;;;;;65.97;3.57;;;15.10;1.00;;;;;;4884912;29;20168;-84
2023/06/04 06:10:52;;;;;;;66.67;3.70;;;15.00;1.00;;;;;;4886031;29;20442;-84
2023/06/04 06:13:18;;;;;;;65.57;3.70;;;15.00;1.00;;;;;;4885142;29;20174;-84
2023/06/04 06:15:44;;;;;;;66.53;3.33;;;15.00;1.00;;;;;;4885617;29;20198;-84
2023/06/04 06:18:09;;;;;;;65.83;3.67;;;15.10;1.00;;;;;;4884586;29;20235;-84
2023/06/04 06:20:35;;;;;;;69.17;4.43;;;15.20;1.00;;;;;;4885085;29;20409;-84
2023/06/04 06:23:07;;;;;;;66.40;3.50;;;15.20;1.00;;;;;;4882917;29;20174;-84
2023/06/04 06:25:33;;;;;;;67.20;3.80;;;15.40;1.00;;;;;;4884508;29;20171;-84
2023/06/04 06:27:59;;;;;;;67.40;3.80;;;15.40;1.00;;;;;;4883720;29;20811;-84
2023/06/04 06:30:24;;;;;;;66.07;3.57;;;15.40;1.00;;;;;;4883150;29;20181;-83
2023/06/04 06:32:53;;;;;;;66.30;3.70;;;15.50;1.00;;;;;;4884192;29;20168;-84
2023/06/04 06:35:19;;;;;;;70.33;3.73;;;15.50;1.00;;;;;;4884909;29;20295;-84
2023/06/04 06:37:45;;;;;;;66.77;3.60;;;15.60;1.00;;;;;;4882165;29;20488;-84
2023/06/04 06:40:11;;;;;;;67.47;3.50;;;15.60;1.00;;;;;;4884762;29;20680;-83
2023/06/04 06:42:37;;;;;;;69.70;3.50;;;15.60;1.00;;;;;;4888041;29;20529;-84
2023/06/04 06:45:02;;;;;;;66.17;3.40;;;15.70;1.00;;;;;;4887693;29;20420;-82
2023/06/04 06:47:28;;;;;;;65.90;3.43;;;15.80;1.00;;;;;;4887315;29;20202;-83
2023/06/04 06:49:54;;;;;;;70.13;3.40;;;15.80;1.00;;;;;;4886852;29;20439;-83
2023/06/04 06:52:23;;;;;;;67.70;3.67;;;15.80;1.00;;;;;;4887588;29;20254;-84
2023/06/04 06:54:49;;;;;;;68.67;3.40;;;15.90;1.00;;;;;;4887018;29;20965;-84
2023/06/04 06:57:15;;;;;;;66.77;3.70;;;16.00;1.00;;;;;;4885906;29;20440;-83
2023/06/04 06:59:40;;;;;;;67.10;3.60;;;16.10;1.00;;;;;;4885354;29;20165;-83
2023/06/04 07:02:07;;;;;;;65.87;3.10;;;16.10;1.00;;;;;;4885197;29;20415;-84
2023/06/04 07:04:33;;;;;;;66.97;3.40;;;16.20;1.00;;;;;;4883011;29;20683;-82
2023/06/04 07:06:59;;;;;;;66.80;3.50;;;16.20;1.00;;;;;;4885983;29;20442;-83
2023/06/04 07:09:24;;;;;;;66.10;3.70;;;16.20;1.00;;;;;;4885811;29;20990;-83
2023/06/04 07:11:50;;;;;;;69.10;3.73;;;16.30;1.00;;;;;;4884504;29;20234;-83
2023/06/04 07:14:18;;;;;;;68.67;3.93;;;16.40;1.00;;;;;;4883149;29;20194;-83
2023/06/04 07:16:44;;;;;;;67.00;3.73;;;16.40;1.00;;;;;;4884459;29;20187;-83
2023/06/04 07:19:10;;;;;;;67.47;3.47;;;16.50;1.00;;;;;;4884208;29;20493;-82
2023/06/04 07:21:36;;;;;;;70.80;3.53;;;16.60;1.00;;;;;;4884203;29;20249;-82
2023/06/04 07:24:02;;;;;;;67.80;3.40;;;16.50;1.00;;;;;;4884282;29;20183;-83
2023/06/04 07:26:30;;;;;;;66.20;3.80;;;16.60;1.00;;;;;;4884083;29;20195;-82
2023/06/04 07:28:56;;;;;;;69.07;3.57;;;16.60;1.00;;;;;;4882526;29;20188;-83
2023/06/04 07:31:22;;;;;;;67.33;3.50;;;16.80;1.00;;;;;;4883748;29;20412;-83
2023/06/04 07:33:48;;;;;;;68.67;3.70;;;16.90;1.00;;;;;;4882754;29;20424;-83
2023/06/04 07:36:14;;;;;;;67.90;3.60;;;16.90;1.00;;;;;;4884267;29;20178;-83
2023/06/04 07:38:40;;;;;;;67.80;3.30;;;17.00;1.00;;;;;;4883962;29;20223;-83
2023/06/04 07:41:06;;;;;;;66.67;3.10;;;17.00;1.00;;;;;;4882834;29;20420;-83
2023/06/04 07:43:35;;;;;;;68.50;3.33;;;17.10;1.00;;;;;;4883728;29;20919;-82
2023/06/04 07:46:01;;;;;;;66.43;3.33;;;17.20;1.00;;;;;;4883274;29;20420;-82
2023/06/04 07:48:30;;;;;;;67.80;3.40;;;17.30;1.00;;;;;;4883868;29;20779;-83
2023/06/04 07:51:00;;;;;;;66.20;3.20;;;17.30;1.00;;;;;;4883246;29;20442;-83
2023/06/04 07:53:26;;;;;;;69.60;3.80;;;17.30;1.00;;;;;;4884137;29;20970;-81
2023/06/04 07:55:53;;;;;;;66.73;3.50;;;17.40;1.00;;;;;;4883459;29;20515;-84
2023/06/04 07:58:19;;;;;;;66.67;3.60;;;17.40;1.00;;;;;;4881860;29;20439;-83
2023/06/04 08:00:45;;;;;;;70.50;4.23;;;17.50;1.00;;;;;;4883826;29;20418;-83
2023/06/04 08:03:11;;;;;;;66.97;3.60;;;17.60;1.00;;;;;;4882488;29;20412;-83
2023/06/04 08:05:36;;;;;;;67.73;3.60;;;17.60;1.00;;;;;;4882131;29;20215;-83
2023/06/04 08:08:03;;;;;;;67.13;3.70;;;17.80;1.00;;;;;;4883060;29;20187;-83
2023/06/04 08:10:29;;;;;;;68.10;4.83;;;18.00;1.00;;;;;;4882828;29;20231;-82
2023/06/04 08:12:55;;;;;;;69.13;4.37;;;18.10;1.00;;;;;;4882547;29;20407;-83
2023/06/04 08:15:21;;;;;;;67.10;4.27;;;18.20;1.00;;;;;;4882395;29;20541;-82
2023/06/04 08:17:47;;;;;;;70.77;5.60;;;18.40;1.00;;;;;;4882418;29;21059;-83
2023/06/04 08:20:15;;;;;;;67.87;5.23;;;18.40;1.00;;;;;;4882802;29;20198;-83
2023/06/04 08:22:41;;;;;;;68.10;4.83;;;18.50;1.00;;;;;;4884935;29;20171;-83
2023/06/04 08:25:08;;;;;;;69.07;4.10;;;18.50;1.00;;;;;;4885312;29;20407;-84
2023/06/04 08:27:34;;;;;;;68.27;5.30;;;18.60;1.00;;;;;;4886323;29;20467;-84
2023/06/04 08:30:00;;;;;;;67.10;4.47;;;18.70;1.00;;;;;;4886191;29;20478;-84
2023/06/04 08:32:26;;;;;;;67.87;4.90;;;18.80;1.00;;;;;;4886057;29;20411;-84
2023/06/04 08:34:56;;;;;;;67.77;5.30;;;18.80;1.00;;;;;;4885722;29;20462;-84
2023/06/04 08:37:24;;;;;;;72.33;4.80;;;19.00;1.00;;;;;;4886970;29;20183;-84
2023/06/04 08:39:50;;;;;;;71.60;5.10;;;19.20;1.00;;;;;;4885824;29;20416;-84
2023/06/04 08:42:22;;;;;;;68.87;4.60;;;19.20;1.00;;;;;;4885097;29;20896;-84
2023/06/04 08:44:54;;;;;;;67.33;4.10;;;19.40;1.00;;;;;;4886474;29;20384;-84
2023/06/04 08:47:21;;;;;;;69.77;4.20;;;19.50;1.00;;;;;;4886223;29;20476;-84
2023/06/04 08:49:53;;;;;;;69.80;3.80;;;19.70;1.00;;;;;;4884397;29;20431;-84
2023/06/04 08:52:21;;;;;;;71.07;4.30;;;19.80;1.00;;;;;;4885158;29;20439;-84
2023/06/04 08:54:50;;;;;;;68.07;4.60;;;19.90;1.00;;;;;;4886115;29;20511;-84
2023/06/04 08:57:20;;;;;;;68.97;6.90;;;20.00;1.00;;;;;;4885767;29;20427;-83
2023/06/04 08:59:47;;;;;;;71.57;13.07;;;20.00;1.00;;;;;;4886035;29;20417;-83
2023/06/04 09:02:14;;;;;;;70.63;9.33;;;20.10;1.00;;;;;;4885250;29;20473;-84
2023/06/04 09:04:41;;;;;;;73.50;10.50;;;20.10;1.00;;;;;;4883347;29;20408;-83
2023/06/04 09:07:08;;;;;;;70.20;11.30;;;20.20;1.00;;;;;;4905781;23;20485;-84
2023/06/04 09:09:43;;;;;;;70.30;11.07;;;20.30;1.00;;;;;;4885074;29;20409;-83
2023/06/04 09:12:40;;;;;;;72.30;12.00;;;20.50;1.00;;;;;;4868598;29;20399;-84
2023/06/04 09:15:07;;;;;;;71.20;11.77;;;20.70;1.00;;;;;;4884462;29;20454;-84
2023/06/04 09:17:32;;;;;;;71.90;10.80;;;20.80;1.00;;;;;;4882599;29;20444;-83
2023/06/04 09:19:58;;;;;;;71.17;9.83;;;21.00;1.00;;;;;;4883677;29;20921;-83
2023/06/04 09:22:51;;;;;;;71.03;11.83;;;21.00;1.00;;;;;;4884308;29;20171;-84
2023/06/04 09:25:21;;;;;;;70.17;8.57;;;21.00;1.00;;;;;;4883907;29;20178;-84
2023/06/04 09:28:42;;;;;;;68.50;5.47;;;21.30;1.00;;;;;;4885200;29;20428;-84
2023/06/04 09:31:17;;;;;;;68.87;6.00;;;21.20;1.00;;;;;;4828331;29;20422;-83
2023/06/04 09:34:44;;;;;;;;;;;;;;;;;;;;;
2023/06/04 09:37:16;;;;;;;71.20;5.67;;;21.50;1.00;;;;;;4869666;29;20520;-84
2023/06/04 09:39:53;;;;;;;71.40;6.07;;;21.60;1.00;;;;;;4883533;29;20423;-84
2023/06/04 09:42:31;;;;;;;68.47;4.90;;;21.70;1.00;;;;;;4884233;29;20386;-84
2023/06/04 09:45:05;;;;;;;67.90;5.10;;;21.80;1.00;;;;;;4883121;29;20414;-83
2023/06/04 09:47:42;;;;;;;74.30;4.30;;;22.10;1.00;;;;;;4881981;29;20487;-83
2023/06/04 09:50:12;;;;;;;70.23;4.97;;;22.30;1.00;;;;;;4881076;29;20399;-82
2023/06/04 09:52:41;;;;;;;68.70;4.07;;;22.50;1.00;;;;;;4881934;29;20412;-82
2023/06/04 09:55:21;;;;;;;67.87;4.07;;;22.60;1.00;;;;;;4881103;29;20864;-82
2023/06/04 09:57:58;;;;;;;68.27;2.83;;;22.80;1.00;;;;;;4880738;29;20478;-82
2023/06/04 10:00:24;;;;;;;69.70;3.40;;;22.90;1.00;;;;;;4880879;29;20467;-82
2023/06/04 10:03:01;;;;;;;69.70;3.47;;;22.80;1.00;;;;;;4881054;29;20408;-82
2023/06/04 10:05:55;;;;;;;69.60;2.90;;;22.80;1.00;;;;;;4881204;29;20518;-81
2023/06/04 10:08:50;;;;;;;72.00;3.00;;;23.00;1.00;;;;;;4880227;29;20451;-82
2023/06/04 10:11:22;;;;;;;67.77;3.33;;;23.10;1.00;;;;;;4880669;29;20399;-82
2023/06/04 10:14:00;;;;;;;70.20;2.77;;;23.30;1.00;;;;;;4880547;29;20414;-82
2023/06/04 10:16:26;;;;;;;70.10;3.10;;;23.20;1.00;;;;;;4884846;29;20431;-82
2023/06/04 10:19:27;;;;;;;72.07;2.90;;;23.40;1.00;;;;;;4884903;29;20415;-83
2023/06/04 10:22:15;;;;;;;67.93;3.13;;;23.70;1.00;;;;;;4883440;29;20926;-84
2023/06/04 10:24:46;;;;;;;68.40;3.07;;;24.10;1.00;;;;;;4885310;29;20396;-83
2023/06/04 10:27:28;;;;;;;69.70;3.00;;;24.40;1.00;;;;;;4884863;29;20449;-83
2023/06/04 10:30:13;;;;;;;70.07;2.73;;;24.50;1.00;;;;;;4885029;29;20934;-82
2023/06/04 10:32:50;;;;;;;68.70;2.97;;;24.20;1.00;;;;;;4883517;29;20459;-83
2023/06/04 10:35:36;;;;;;;67.90;2.70;;;24.60;1.00;;;;;;4883573;29;20425;-81
2023/06/04 10:38:13;;;;;;;67.60;2.40;;;24.90;1.00;;;;;;4884661;29;20427;-83
2023/06/04 10:40:42;;;;;;;68.17;2.60;;;24.80;1.00;;;;;;4884276;29;20891;-84
2023/06/04 10:43:29;;;;;;;67.97;2.90;;;25.00;1.00;;;;;;4883044;29;20420;-83
2023/06/04 10:45:58;;;;;;;69.27;3.40;;;25.30;1.00;;;;;;4884139;29;20439;-82
2023/06/04 10:48:24;;;;;;;68.10;2.87;;;25.60;1.00;;;;;;4884522;29;20426;-84
2023/06/04 10:50:56;;;;;;;73.70;2.90;;;25.70;1.00;;;;;;4883202;29;20795;-83
2023/06/04 10:53:47;;;;;;;69.53;2.50;;;26.00;1.00;;;;;;4883155;29;20576;-83
2023/06/04 10:56:42;;;;;;;67.73;2.40;;;25.90;1.00;;;;;;4858250;29;20903;-81
2023/06/04 10:59:24;;;;;;;68.30;2.40;;;26.10;1.00;;;;;;4882370;29;20497;-82
2023/06/04 11:02:14;;;;;;;67.93;2.67;;;26.20;1.00;;;;;;4883509;29;20879;-83
2023/06/04 11:04:46;;;;;;;70.40;2.53;;;26.70;1.00;;;;;;4882975;29;20451;-80
2023/06/04 11:07:15;;;;;;;73.53;3.60;;;26.80;1.00;;;;;;4881313;29;20434;-81
2023/06/04 11:09:58;;;;;;;67.70;2.30;;;26.20;1.00;;;;;;4885743;29;20167;-82
2023/06/04 11:12:33;;;;;;;69.20;2.30;;;25.90;1.00;;;;;;4886862;29;20427;-83
2023/06/04 11:14:59;;;;;;;71.17;2.60;;;26.10;1.00;;;;;;4886717;29;20461;-85
2023/06/04 11:17:38;;;;;;;68.00;2.33;;;26.40;1.00;;;;;;4886057;29;20534;-83
2023/06/04 11:20:42;;;;;;;68.33;2.50;;;26.90;1.00;;;;;;4886184;29;20425;-83
2023/06/04 11:23:15;;;;;;;67.67;2.23;;;27.10;1.00;;;;;;4885591;29;20415;-84
2023/06/04 11:25:43;;;;;;;70.43;2.40;;;27.40;1.00;;;;;;4886378;29;20507;-82
2023/06/04 11:28:30;;;;;;;67.30;2.40;;;27.10;1.00;;;;;;4884934;29;20438;-82
2023/06/04 11:31:19;;;;;;;67.37;2.33;;;26.60;1.00;;;;;;4886353;29;20392;-82
2023/06/04 11:34:13;;;;;;;70.97;2.60;;;26.20;1.00;;;;;;4886433;29;20404;-84
2023/06/04 11:36:46;;;;;;;67.07;2.10;;;26.50;1.00;;;;;;4863476;29;20451;-82
2023/06/04 11:39:34;;;;;;;67.97;2.50;;;27.20;1.00;;;;;;4885141;29;20419;-82
2023/06/04 11:42:07;;;;;;;69.00;2.63;;;27.40;1.00;;;;;;4885862;29;20399;-82
2023/06/04 11:44:47;;;;;;;67.53;2.83;;;27.10;1.00;;;;;;4885051;29;20482;-82
2023/06/04 11:47:13;;;;;;;68.50;2.20;;;26.40;1.00;;;;;;4886027;29;20524;-83
2023/06/04 11:49:39;;;;;;;68.20;2.40;;;26.80;1.00;;;;;;4885034;29;20455;-83
2023/06/04 11:52:05;;;;;;;69.20;2.67;;;27.20;1.00;;;;;;4885110;29;20171;-82
2023/06/04 11:54:36;;;;;;;67.60;2.47;;;27.50;1.00;;;;;;4886378;29;20181;-83
2023/06/04 11:59:57;;;;;;;70.83;2.57;;;26.60;1.00;;;;;;4886031;29;20494;-82
2023/06/04 12:02:26;;;;;;;70.37;2.50;;;26.70;1.00;;;;;;4886497;29;20412;-84
2023/06/04 12:05:03;;;;;;;68.17;2.63;;;27.10;1.00;;;;;;4886348;29;20455;-85
2023/06/04 12:07:41;;;;;;;69.60;2.20;;;27.30;1.00;;;;;;4886077;29;20495;-85
2023/06/04 12:10:11;;;;;;;67.27;2.70;;;27.60;1.00;;;;;;4885865;29;20391;-82
2023/06/04 12:13:08;;;;;;;67.67;2.77;;;27.60;1.00;;;;;;4885929;29;20396;-83
2023/06/04 12:15:39;;;;;;;73.60;3.00;;;27.00;1.00;;;;;;4880638;29;20415;-83
2023/06/04 12:18:09;;;;;;;69.20;2.60;;;26.70;1.00;;;;;;4883398;29;20447;-82
2023/06/04 12:20:54;;;;;;;69.20;3.00;;;27.10;1.00;;;;;;4885849;29;20913;-83
2023/06/04 12:23:23;;;;;;;68.67;2.70;;;27.20;1.00;;;;;;4885799;29;20479;-82
2023/06/04 12:25:55;;;;;;;69.80;2.70;;;27.20;1.00;;;;;;4884257;29;20458;-82
2023/06/04 12:28:23;;;;;;;68.07;2.73;;;27.30;1.00;;;;;;4884223;29;20526;-83
2023/06/04 12:30:54;;;;;;;70.20;3.10;;;27.20;1.00;;;;;;4885669;29;20396;-82
2023/06/04 12:33:27;;;;;;;68.87;3.00;;;27.30;1.00;;;;;;4884928;29;20506;-83
2023/06/04 12:35:55;;;;;;;67.57;2.40;;;27.40;1.00;;;;;;4885199;29;20876;-84
2023/06/04 12:38:39;;;;;;;67.50;2.43;;;27.70;1.00;;;;;;4883218;29;20965;-83
2023/06/04 12:41:25;;;;;;;68.67;2.80;;;27.90;1.00;;;;;;4883779;29;20891;-82
2023/06/04 12:43:55;;;;;;;68.80;2.50;;;28.10;1.00;;;;;;4884148;29;20407;-84
2023/06/04 12:47:30;;;;;;;69.07;2.83;;;28.30;1.00;;;;;;4883489;29;20502;-81
2023/06/04 12:49:58;;;;;;;69.47;2.47;;;28.40;1.00;;;;;;4808527;29;20411;-82
2023/06/04 12:52:56;;;;;;;67.57;2.50;;;28.50;1.00;;;;;;4876192;29;20479;-81
2023/06/04 12:55:28;;;;;;;69.67;2.90;;;28.60;1.00;;;;;;4884480;29;20394;-82
2023/06/04 13:01:52;;;;;;;68.97;2.63;;;28.20;1.00;;;;;;4883640;29;20407;-82
2023/06/04 13:05:48;;;;;;;70.50;2.90;;;27.70;1.00;;;;;;4883344;29;20487;-82
2023/06/04 13:10:39;;;;;;;;;;;;;;;;;;;;;